Chapeltown, United Kingdom
Current Conditions -  °F | °C
As of 10:50 PM on Friday 28 Nov 2014 (Local Time) from EGCN Reporting Station
Overcast Overcast  
Wind Chill: 50°   Ceiling: 1200
Heat Index: 50°   Visibility: 4mi
Dew Point: 48°   Wind: 7mph
Humidity: 94%   Direction: 20°NNE
Pressure: 29.83"   Gusts: NA
Location:  53.47°N, 1.47°W
Report Text: EGCN 282250Z 02006KT 6000 OVC012 10/09 Q1010
Loading
Personal Weather Stations






























Interactive Weather Map New forecast layout! Learn more

10-Day Weather Forecast

Advertisements
Track Severe Weather on mobile